Time;durP1;ratioP1;P1;durP2;ratioP2;P2;SDS_P1;SDS_P2;PMS_P1;PMS_P2;Temp;Humidity;BMP_temperature;BMP_pressure;BME280_temperature;BME280_humidity;BME280_pressure;Samples;Min_cycle;Max_cycle;Signal;HPM_P1;HPM_P2
2023/09/09 00:01:21;;;;;;;18.27;15.90;;;22.40;99.90;;;;;;4942405;28;20090;-75
2023/09/09 00:03:47;;;;;;;17.05;14.85;;;22.30;99.90;;;;;;4942599;28;20053;-75
2023/09/09 00:06:13;;;;;;;16.88;15.13;;;22.20;99.90;;;;;;4957943;28;20486;-75
2023/09/09 00:08:40;;;;;;;17.13;14.70;;;22.40;99.90;;;;;;4942484;28;20046;-75
2023/09/09 00:11:06;;;;;;;17.48;15.18;;;22.30;99.90;;;;;;4958106;28;20046;-75
2023/09/09 00:13:32;;;;;;;19.75;16.80;;;22.40;99.90;;;;;;4942086;28;20042;-75
2023/09/09 00:15:58;;;;;;;18.40;16.25;;;22.30;99.90;;;;;;4958002;28;20053;-75
2023/09/09 00:18:23;;;;;;;17.50;14.73;;;22.20;99.90;;;;;;4958037;28;20130;-75
2023/09/09 00:20:49;;;;;;;17.33;15.07;;;22.10;99.90;;;;;;4958284;28;20130;-75
2023/09/09 00:23:15;;;;;;;17.98;15.57;;;22.10;99.90;;;;;;4957926;28;20047;-75
2023/09/09 00:25:42;;;;;;;18.05;14.30;;;22.20;99.90;;;;;;4942092;28;20118;-75
2023/09/09 00:28:09;;;;;;;17.73;15.43;;;22.00;99.90;;;;;;4957906;28;20122;-75
2023/09/09 00:30:35;;;;;;;19.02;15.77;;;22.00;99.90;;;;;;4958185;28;20552;-75
2023/09/09 00:33:02;;;;;;;20.92;16.63;;;22.00;99.90;;;;;;4941788;28;20061;-75
2023/09/09 00:35:28;;;;;;;19.02;15.57;;;22.00;99.90;;;;;;4958001;28;20072;-75
2023/09/09 00:37:54;;;;;;;19.15;17.17;;;22.40;99.90;;;;;;4957770;28;20031;-75
2023/09/09 00:40:20;;;;;;;19.40;16.92;;;21.80;99.90;;;;;;4941644;28;20043;-75
2023/09/09 00:42:46;;;;;;;22.52;16.77;;;22.00;99.90;;;;;;4958175;28;20042;-75
2023/09/09 00:45:11;;;;;;;20.17;16.17;;;21.80;99.90;;;;;;4957617;28;20517;-75
2023/09/09 00:47:38;;;;;;;18.65;15.95;;;22.00;99.90;;;;;;4941171;28;20510;-75
2023/09/09 00:50:08;;;;;;;18.33;16.35;;;21.70;99.90;;;;;;4957470;28;20046;-75
2023/09/09 00:52:36;;;;;;;17.63;15.52;;;21.80;99.90;;;;;;4957410;28;20039;-75
2023/09/09 00:55:02;;;;;;;18.00;15.82;;;21.60;99.90;;;;;;4941623;28;20070;-75
2023/09/09 00:57:28;;;;;;;21.35;16.73;;;21.80;99.90;;;;;;4957128;28;20058;-75
2023/09/09 00:59:53;;;;;;;19.40;15.60;;;21.70;99.90;;;;;;4957192;28;20406;-75
2023/09/09 01:02:19;;;;;;;18.92;16.48;;;21.70;99.90;;;;;;4958024;28;20078;-75
2023/09/09 01:04:45;;;;;;;18.20;15.60;;;21.90;99.90;;;;;;4957247;28;20050;-75
2023/09/09 01:07:11;;;;;;;17.60;15.85;;;24.10;99.90;;;;;;4955800;28;20031;-75
2023/09/09 01:09:37;;;;;;;17.50;15.18;;;21.70;99.90;;;;;;4957386;28;20162;-75
2023/09/09 01:12:03;;;;;;;18.88;16.25;;;21.80;99.90;;;;;;4957104;28;20121;-75
2023/09/09 01:14:29;;;;;;;19.98;15.57;;;21.70;99.90;;;;;;4956995;28;20082;-75
2023/09/09 01:16:56;;;;;;;19.67;16.45;;;21.70;99.90;;;;;;4956654;28;20082;-75
2023/09/09 01:19:27;;;;;;;18.42;16.17;;;21.60;99.90;;;;;;4956889;28;20046;-75
2023/09/09 01:21:54;;;;;;;19.77;15.90;;;21.60;99.90;;;;;;4956781;28;20039;-75
2023/09/09 01:24:20;;;;;;;22.20;17.88;;;21.60;99.90;;;;;;4956801;28;20054;-75
2023/09/09 01:26:46;;;;;;;18.08;15.52;;;22.00;99.90;;;;;;4956788;28;20035;-75
2023/09/09 01:29:12;;;;;;;20.27;16.50;;;21.70;99.90;;;;;;4956808;28;20035;-75
2023/09/09 01:31:38;;;;;;;22.10;17.08;;;21.60;99.90;;;;;;4957014;28;20042;-75
2023/09/09 01:34:04;;;;;;;19.00;16.10;;;21.60;99.90;;;;;;4956959;28;20045;-75
2023/09/09 01:36:30;;;;;;;19.45;17.48;;;21.40;99.90;;;;;;4956387;28;20489;-75
2023/09/09 01:38:56;;;;;;;22.40;17.42;;;21.50;99.90;;;;;;4956538;28;20043;-75
2023/09/09 01:41:22;;;;;;;19.88;17.80;;;21.20;99.90;;;;;;4940550;28;20051;-75
2023/09/09 01:43:47;;;;;;;19.52;17.33;;;21.50;99.90;;;;;;4956742;28;20122;-75
2023/09/09 01:46:13;;;;;;;19.23;16.80;;;21.70;99.90;;;;;;4956151;28;20046;-75
2023/09/09 01:48:39;;;;;;;18.58;16.52;;;21.30;99.90;;;;;;4956790;28;20088;-75
2023/09/09 01:51:05;;;;;;;20.17;18.08;;;21.30;99.90;;;;;;4940359;28;20497;-75
2023/09/09 01:53:31;;;;;;;20.58;17.25;;;21.30;99.90;;;;;;4956294;28;20045;-75
2023/09/09 01:55:58;;;;;;;19.77;17.77;;;21.20;99.90;;;;;;4956465;28;20034;-75
2023/09/09 01:58:23;;;;;;;23.80;18.02;;;21.20;99.90;;;;;;4956239;28;20050;-75
2023/09/09 02:00:49;;;;;;;19.05;17.05;;;21.30;99.90;;;;;;4956023;28;20482;-75
2023/09/09 02:03:15;;;;;;;23.00;17.02;;;21.40;99.90;;;;;;4956113;28;20125;-75
2023/09/09 02:05:40;;;;;;;21.52;18.02;;;21.20;99.90;;;;;;4940233;28;20126;-75
2023/09/09 02:08:06;;;;;;;24.80;19.92;;;21.20;99.90;;;;;;4956050;28;20050;-75
2023/09/09 02:10:32;;;;;;;21.35;19.15;;;21.30;99.90;;;;;;4956001;28;20522;-75
2023/09/09 02:12:58;;;;;;;23.17;20.50;;;21.40;99.90;;;;;;4955952;28;20521;-75
2023/09/09 02:15:23;;;;;;;22.50;19.20;;;21.30;99.90;;;;;;4955965;28;20121;-75
2023/09/09 02:17:49;;;;;;;25.35;20.88;;;21.10;99.90;;;;;;4939704;28;20494;-75
2023/09/09 02:20:14;;;;;;;22.95;20.55;;;21.20;99.90;;;;;;4955815;28;20612;-75
2023/09/09 02:22:40;;;;;;;20.63;18.42;;;21.20;99.90;;;;;;4955858;28;20065;-75
2023/09/09 02:25:07;;;;;;;25.45;20.27;;;21.20;99.90;;;;;;4956151;28;20402;-75
2023/09/09 02:27:33;;;;;;;22.33;20.02;;;20.90;99.90;;;;;;4955430;28;20529;-75
2023/09/09 02:29:58;;;;;;;20.75;18.52;;;21.20;99.90;;;;;;4939733;28;20047;-75
2023/09/09 02:32:24;;;;;;;24.27;18.92;;;21.00;99.90;;;;;;4955740;28;20039;-75
2023/09/09 02:34:50;;;;;;;21.63;18.95;;;21.10;99.90;;;;;;4955725;28;20150;-75
2023/09/09 02:37:17;;;;;;;26.00;20.95;;;21.60;99.90;;;;;;4955583;28;20038;-75
2023/09/09 02:39:47;;;;;;;20.92;18.33;;;21.10;99.90;;;;;;4939914;28;20469;-75
2023/09/09 02:42:15;;;;;;;22.25;19.83;;;20.90;99.90;;;;;;4939500;28;20115;-75
2023/09/09 02:44:42;;;;;;;25.13;22.23;;;21.10;99.90;;;;;;4955578;28;20041;-75
2023/09/09 02:47:09;;;;;;;23.90;19.75;;;21.30;99.90;;;;;;4955334;28;20038;-75
2023/09/09 02:49:36;;;;;;;23.17;19.88;;;21.00;99.90;;;;;;4955566;28;20055;-75
2023/09/09 02:52:02;;;;;;;27.13;23.85;;;20.80;99.90;;;;;;4955443;28;20085;-75
2023/09/09 02:54:28;;;;;;;24.05;21.67;;;21.10;99.90;;;;;;4955563;28;20116;-75
2023/09/09 02:56:53;;;;;;;26.42;21.92;;;21.10;99.90;;;;;;4955487;28;20137;-75
2023/09/09 02:59:19;;;;;;;23.27;20.77;;;20.90;99.90;;;;;;4955457;28;20035;-75
2023/09/09 03:01:44;;;;;;;27.15;22.48;;;21.00;99.90;;;;;;4955341;28;20120;-75
2023/09/09 03:04:11;;;;;;;23.90;21.25;;;20.90;99.90;;;;;;4955439;28;20097;-75
2023/09/09 03:06:37;;;;;;;24.75;22.20;;;21.10;99.90;;;;;;4955341;28;20061;-75
2023/09/09 03:09:04;;;;;;;24.92;22.27;;;21.00;99.90;;;;;;4955593;28;20494;-75
2023/09/09 03:11:29;;;;;;;23.85;21.23;;;20.90;99.90;;;;;;4955218;28;20104;-75
2023/09/09 03:13:55;;;;;;;25.42;22.80;;;20.80;99.90;;;;;;4939468;28;20134;-75
2023/09/09 03:16:20;;;;;;;26.17;20.67;;;20.70;99.90;;;;;;4955044;28;20039;-75
2023/09/09 03:18:46;;;;;;;27.38;21.55;;;20.70;99.90;;;;;;4939332;28;20083;-74
2023/09/09 03:21:12;;;;;;;26.08;21.80;;;20.70;99.90;;;;;;4955510;28;20102;-75
2023/09/09 03:23:37;;;;;;;25.85;21.02;;;20.70;99.90;;;;;;4939349;28;20039;-75
2023/09/09 03:26:04;;;;;;;22.50;20.30;;;20.70;99.90;;;;;;4955179;28;20417;-75
2023/09/09 03:28:30;;;;;;;23.50;21.13;;;20.80;99.90;;;;;;4955258;28;20043;-75
2023/09/09 03:30:57;;;;;;;22.20;19.90;;;20.90;99.90;;;;;;4958277;28;20039;-75
2023/09/09 03:33:24;;;;;;;24.17;20.60;;;21.50;99.90;;;;;;4943659;28;20035;-75
2023/09/09 03:35:50;;;;;;;23.33;20.30;;;21.00;99.90;;;;;;4942763;28;20074;-75
2023/09/09 03:38:16;;;;;;;24.63;22.05;;;20.50;99.90;;;;;;4958804;28;20035;-75
2023/09/09 03:40:44;;;;;;;24.25;21.67;;;20.70;99.90;;;;;;4942549;28;20070;-75
2023/09/09 03:43:12;;;;;;;22.90;20.48;;;20.70;99.90;;;;;;4942654;28;20034;-75
2023/09/09 03:45:37;;;;;;;23.45;20.88;;;20.60;99.90;;;;;;4958651;28;20092;-75
2023/09/09 03:48:04;;;;;;;24.02;20.60;;;20.60;99.90;;;;;;4958420;28;20035;-75
2023/09/09 03:50:30;;;;;;;25.50;21.77;;;20.40;99.90;;;;;;4958452;28;20593;-75
2023/09/09 03:52:56;;;;;;;22.17;19.88;;;20.40;99.90;;;;;;4958531;28;20046;-75
2023/09/09 03:55:22;;;;;;;22.35;20.05;;;22.80;99.90;;;;;;4942887;28;20047;-75
2023/09/09 03:57:47;;;;;;;22.48;20.13;;;20.40;99.90;;;;;;4942224;28;20043;-75
2023/09/09 04:00:13;;;;;;;24.40;21.75;;;20.50;99.90;;;;;;4958193;28;20079;-75
2023/09/09 04:02:39;;;;;;;25.05;21.50;;;20.50;99.90;;;;;;4942422;28;20049;-75
2023/09/09 04:05:06;;;;;;;22.33;19.98;;;20.20;99.90;;;;;;4958337;28;20039;-75
2023/09/09 04:07:35;;;;;;;22.63;20.23;;;20.10;99.90;;;;;;4957960;28;20114;-75
2023/09/09 04:10:02;;;;;;;24.23;20.27;;;20.20;99.90;;;;;;4958222;28;20042;-75
2023/09/09 04:12:27;;;;;;;22.20;19.20;;;20.20;99.90;;;;;;4958182;28;20055;-75
2023/09/09 04:14:53;;;;;;;22.70;20.30;;;20.00;99.90;;;;;;4958450;28;20043;-75
2023/09/09 04:17:18;;;;;;;22.25;19.77;;;20.20;99.90;;;;;;4942103;28;20046;-75
2023/09/09 04:19:44;;;;;;;22.88;20.45;;;20.70;99.90;;;;;;4942135;28;20518;-75
2023/09/09 04:22:10;;;;;;;27.67;21.98;;;20.30;99.90;;;;;;4957849;28;20050;-75
2023/09/09 04:24:35;;;;;;;22.95;20.55;;;20.10;99.90;;;;;;4958057;28;20503;-75
2023/09/09 04:27:01;;;;;;;25.92;20.92;;;20.90;99.90;;;;;;4958064;28;20445;-74
2023/09/09 04:29:26;;;;;;;23.30;20.65;;;19.90;99.90;;;;;;4957951;28;20097;-74
2023/09/09 04:31:52;;;;;;;25.80;21.45;;;19.80;99.90;;;;;;4957859;28;20043;-75
2023/09/09 04:34:17;;;;;;;22.77;20.08;;;20.00;99.90;;;;;;4957802;28;20065;-75
2023/09/09 04:36:45;;;;;;;23.38;19.00;;;20.10;99.90;;;;;;4941452;28;20123;-75
2023/09/09 04:39:13;;;;;;;22.98;20.38;;;20.00;99.90;;;;;;4957589;28;20042;-75
2023/09/09 04:41:39;;;;;;;22.50;19.85;;;20.00;99.90;;;;;;4957570;28;20071;-75
2023/09/09 04:44:05;;;;;;;23.00;20.20;;;20.70;99.90;;;;;;4957590;28;20057;-75
2023/09/09 04:46:31;;;;;;;22.52;20.05;;;20.20;99.90;;;;;;4957313;28;20039;-75
2023/09/09 04:48:57;;;;;;;23.02;19.65;;;20.00;99.90;;;;;;4957475;28;20078;-75
2023/09/09 04:51:22;;;;;;;22.58;20.17;;;19.70;99.90;;;;;;4957293;28;20126;-75
2023/09/09 04:53:48;;;;;;;22.25;19.88;;;19.80;99.90;;;;;;4957512;28;20448;-75
2023/09/09 04:56:13;;;;;;;23.20;19.60;;;19.90;99.90;;;;;;4957098;28;20046;-75
2023/09/09 04:58:39;;;;;;;25.33;19.83;;;20.10;99.90;;;;;;4957326;28;20195;-75
2023/09/09 05:01:05;;;;;;;24.48;20.20;;;19.80;99.90;;;;;;4957135;28;20414;-75
2023/09/09 05:03:30;;;;;;;22.15;19.67;;;19.70;99.90;;;;;;4957230;28;20166;-75
2023/09/09 05:05:56;;;;;;;25.10;20.48;;;19.70;99.90;;;;;;4957036;28;20049;-75
2023/09/09 05:08:22;;;;;;;22.25;19.90;;;19.80;99.90;;;;;;4957256;28;20035;-75
2023/09/09 05:10:47;;;;;;;24.15;20.65;;;19.80;99.90;;;;;;4957372;28;20514;-75
2023/09/09 05:13:13;;;;;;;22.27;19.92;;;19.70;99.90;;;;;;4957119;28;20035;-76
2023/09/09 05:15:38;;;;;;;25.33;20.17;;;19.90;99.90;;;;;;4957060;28;20039;-75
2023/09/09 05:18:04;;;;;;;23.63;19.38;;;19.80;99.90;;;;;;4940796;28;20066;-76
2023/09/09 05:20:30;;;;;;;24.48;21.00;;;19.80;99.90;;;;;;4940698;28;20050;-75
2023/09/09 05:22:56;;;;;;;23.80;21.08;;;20.80;99.90;;;;;;4956916;28;20410;-76
2023/09/09 05:25:21;;;;;;;23.10;20.42;;;19.70;99.90;;;;;;4940944;28;20035;-75
2023/09/09 05:27:47;;;;;;;23.48;20.98;;;19.70;99.90;;;;;;4956529;28;20061;-75
2023/09/09 05:30:12;;;;;;;22.02;19.70;;;20.90;99.90;;;;;;4940759;28;20047;-75
2023/09/09 05:32:39;;;;;;;23.70;20.23;;;19.50;99.90;;;;;;4956755;28;20064;-75
2023/09/09 05:35:06;;;;;;;24.15;21.60;;;20.90;99.90;;;;;;4956577;28;20147;-75
2023/09/09 05:37:32;;;;;;;21.98;19.67;;;19.80;99.90;;;;;;4956299;28;20050;-75
2023/09/09 05:39:57;;;;;;;23.40;20.35;;;20.20;99.90;;;;;;4956589;28;20043;-75
2023/09/09 05:42:23;;;;;;;22.80;20.15;;;20.00;99.90;;;;;;4956548;28;20039;-75
2023/09/09 05:44:49;;;;;;;22.50;20.10;;;20.00;99.90;;;;;;4940514;28;20387;-75
2023/09/09 05:47:14;;;;;;;22.58;20.17;;;19.80;99.90;;;;;;4956087;28;20043;-75
2023/09/09 05:49:40;;;;;;;25.60;21.02;;;19.90;99.90;;;;;;4956633;28;20439;-75
2023/09/09 05:52:06;;;;;;;23.60;20.65;;;19.90;99.90;;;;;;4955773;28;20132;-75
2023/09/09 05:54:32;;;;;;;30.88;22.33;;;19.90;99.90;;;;;;4956304;28;20045;-75
2023/09/09 05:56:58;;;;;;;27.30;23.75;;;20.50;99.90;;;;;;4956008;28;20038;-76
2023/09/09 05:59:23;;;;;;;24.88;20.42;;;19.80;99.90;;;;;;4940311;28;20529;-75
2023/09/09 06:01:49;;;;;;;24.80;22.08;;;20.20;99.90;;;;;;4940017;28;20118;-75
2023/09/09 06:04:15;;;;;;;26.35;22.73;;;20.10;99.90;;;;;;4956040;28;20074;-75
2023/09/09 06:06:43;;;;;;;23.42;20.83;;;20.20;99.90;;;;;;4955900;28;20125;-75
2023/09/09 06:09:09;;;;;;;23.90;21.10;;;20.30;99.90;;;;;;4956391;28;20517;-75
2023/09/09 06:11:35;;;;;;;26.25;21.63;;;19.80;99.90;;;;;;4956086;28;20430;-75
2023/09/09 06:14:00;;;;;;;23.23;20.73;;;20.30;99.90;;;;;;4956236;28;20034;-75
2023/09/09 06:16:26;;;;;;;26.45;22.02;;;20.20;99.90;;;;;;4955996;28;20042;-75
2023/09/09 06:18:51;;;;;;;26.17;23.15;;;20.10;99.90;;;;;;4955826;28;20035;-75
2023/09/09 06:21:17;;;;;;;27.63;24.02;;;20.80;99.90;;;;;;4955844;28;20477;-75
2023/09/09 06:23:43;;;;;;;27.48;24.55;;;20.30;99.90;;;;;;4939973;28;20105;-75
2023/09/09 06:26:08;;;;;;;27.15;23.35;;;20.40;99.90;;;;;;4955866;28;20480;-75
2023/09/09 06:28:34;;;;;;;25.13;22.42;;;20.60;99.90;;;;;;4956065;28;20133;-75
2023/09/09 06:31:00;;;;;;;30.13;23.33;;;20.50;99.90;;;;;;4939761;28;20038;-74
2023/09/09 06:33:25;;;;;;;27.10;23.50;;;20.80;99.90;;;;;;4939705;28;20410;-75
2023/09/09 06:35:51;;;;;;;28.30;25.30;;;20.70;99.90;;;;;;4939810;28;20073;-75
2023/09/09 06:38:17;;;;;;;33.40;26.60;;;21.40;99.90;;;;;;4955867;28;20034;-75
2023/09/09 06:40:46;;;;;;;29.52;25.40;;;20.90;99.90;;;;;;4955531;28;20047;-75
2023/09/09 06:43:13;;;;;;;27.75;24.20;;;20.70;99.90;;;;;;4939883;28;20090;-75
2023/09/09 06:45:39;;;;;;;30.25;26.90;;;20.80;99.90;;;;;;4955958;28;20375;-75
2023/09/09 06:48:05;;;;;;;31.27;27.30;;;21.30;99.90;;;;;;4955125;28;20572;-75
2023/09/09 06:50:31;;;;;;;30.65;27.30;;;21.00;99.90;;;;;;4955491;28;20046;-75
2023/09/09 06:52:56;;;;;;;38.85;28.70;;;21.20;99.90;;;;;;4939571;28;20502;-75
2023/09/09 06:55:22;;;;;;;32.22;28.30;;;21.20;99.90;;;;;;4955494;28;20081;-75
2023/09/09 06:57:48;;;;;;;29.20;26.10;;;21.40;99.90;;;;;;4955196;28;20042;-75
2023/09/09 07:00:16;;;;;;;27.73;24.73;;;21.20;99.90;;;;;;4955647;28;20042;-78
2023/09/09 07:02:42;;;;;;;29.73;26.45;;;21.40;99.90;;;;;;4955402;28;20042;-75
2023/09/09 07:05:08;;;;;;;30.75;27.45;;;21.60;99.90;;;;;;4957319;28;20045;-75
2023/09/09 07:07:33;;;;;;;33.95;27.60;;;21.70;99.90;;;;;;4959094;28;20435;-75
2023/09/09 07:09:59;;;;;;;32.58;27.52;;;21.70;99.90;;;;;;4959424;28;20051;-75
2023/09/09 07:12:25;;;;;;;32.90;28.73;;;21.70;99.90;;;;;;4959384;28;20090;-75
2023/09/09 07:14:51;;;;;;;34.85;30.95;;;21.80;99.90;;;;;;4959532;28;20053;-76
2023/09/09 07:17:17;;;;;;;42.50;33.30;;;21.80;99.90;;;;;;4943255;28;20085;-75
2023/09/09 07:19:42;;;;;;;40.47;34.42;;;21.70;99.90;;;;;;4959198;28;20070;-75
2023/09/09 07:22:08;;;;;;;39.53;32.42;;;21.80;99.90;;;;;;4959035;28;20043;-75
2023/09/09 07:24:34;;;;;;;36.67;32.53;;;22.10;99.90;;;;;;4959135;28;20097;-75
2023/09/09 07:27:04;;;;;;;36.72;32.40;;;22.40;99.90;;;;;;4942825;28;20038;-76
2023/09/09 07:29:30;;;;;;;42.10;35.08;;;22.00;99.90;;;;;;4942935;28;20085;-76
2023/09/09 07:31:56;;;;;;;59.13;45.55;;;22.50;99.90;;;;;;4959047;28;20082;-75
2023/09/09 07:34:21;;;;;;;52.00;41.65;;;22.70;99.90;;;;;;4959063;28;20521;-75
2023/09/09 07:36:47;;;;;;;63.90;47.72;;;22.80;99.90;;;;;;4958599;28;20070;-75
2023/09/09 07:39:14;;;;;;;65.18;49.65;;;23.30;99.90;;;;;;4958658;28;20101;-76
2023/09/09 07:41:39;;;;;;;55.50;43.35;;;22.90;99.90;;;;;;4958953;28;20039;-75
2023/09/09 07:44:06;;;;;;;59.72;45.88;;;23.00;99.90;;;;;;4942659;28;20541;-75
2023/09/09 07:46:32;;;;;;;61.50;46.95;;;23.30;99.90;;;;;;4958602;28;20046;-76
2023/09/09 07:48:58;;;;;;;54.38;42.42;;;23.30;99.90;;;;;;4942586;28;20039;-75
2023/09/09 07:51:23;;;;;;;48.75;38.80;;;23.20;99.90;;;;;;4958821;28;20129;-75
2023/09/09 07:53:49;;;;;;;52.50;40.17;;;23.50;99.90;;;;;;4942667;28;20100;-76
2023/09/09 07:56:15;;;;;;;47.38;39.38;;;23.80;99.90;;;;;;4942260;28;20050;-76
2023/09/09 07:58:40;;;;;;;45.92;38.42;;;23.70;99.90;;;;;;4942596;28;20069;-75
2023/09/09 08:01:08;;;;;;;48.10;38.33;;;23.50;99.90;;;;;;4958245;28;20046;-76
2023/09/09 08:03:34;;;;;;;44.58;36.72;;;23.70;99.90;;;;;;4942573;28;20443;-76
2023/09/09 08:06:06;;;;;;;39.60;34.22;;;23.80;99.90;;;;;;4958575;28;20054;-75
2023/09/09 08:08:35;;;;;;;43.25;36.10;;;24.10;99.90;;;;;;4942416;28;20035;-76
2023/09/09 08:11:02;;;;;;;43.90;34.97;;;24.20;99.90;;;;;;4942311;28;20122;-76
2023/09/09 08:13:28;;;;;;;38.60;32.92;;;24.00;99.90;;;;;;4943111;28;20042;-76
2023/09/09 08:15:54;;;;;;;38.75;33.08;;;24.40;99.90;;;;;;4959833;28;20047;-75
2023/09/09 08:18:19;;;;;;;35.42;30.85;;;24.40;99.90;;;;;;4960276;28;20042;-76
2023/09/09 08:20:52;;;;;;;37.63;29.58;;;24.40;99.90;;;;;;4958114;28;20510;-76
2023/09/09 08:23:18;;;;;;;35.10;30.63;;;24.30;99.90;;;;;;4958115;28;20034;-75
2023/09/09 08:25:44;;;;;;;31.52;27.33;;;24.50;99.90;;;;;;4958105;28;20081;-76
2023/09/09 08:28:10;;;;;;;35.38;27.95;;;24.70;99.90;;;;;;4957780;28;20405;-76
2023/09/09 08:30:36;;;;;;;30.88;26.15;;;24.80;99.90;;;;;;4958057;28;20138;-76
2023/09/09 08:33:02;;;;;;;31.17;27.05;;;24.80;99.90;;;;;;4958207;28;20043;-76
2023/09/09 08:35:31;;;;;;;49.88;33.72;;;24.70;99.90;;;;;;4957816;28;20458;-76
2023/09/09 08:37:59;;;;;;;32.65;29.13;;;25.10;99.90;;;;;;4957668;28;20043;-76
2023/09/09 08:40:25;;;;;;;43.80;33.92;;;24.70;99.90;;;;;;4957482;28;20047;-76
2023/09/09 08:43:27;;;;;;;41.60;35.85;;;24.80;99.90;;;;;;4941539;28;20070;-76
2023/09/09 08:46:12;;;;;;;43.75;35.08;;;24.70;99.90;;;;;;4957530;28;20050;-75
2023/09/09 08:48:41;;;;;;;45.05;37.58;;;24.80;99.90;;;;;;4941516;28;20042;-76
2023/09/09 08:51:12;;;;;;;41.45;34.53;;;24.70;99.90;;;;;;4941364;28;20039;-76
2023/09/09 08:53:40;;;;;;;44.85;34.92;;;25.00;99.90;;;;;;4957530;28;20046;-75
2023/09/09 08:56:05;;;;;;;38.35;33.95;;;25.20;99.90;;;;;;4941155;28;20078;-76
2023/09/09 08:58:32;;;;;;;41.58;34.20;;;25.20;99.90;;;;;;4957469;28;20463;-76
2023/09/09 09:00:59;;;;;;;35.65;28.65;;;26.00;99.90;;;;;;4941447;28;20109;-76
2023/09/09 09:03:26;;;;;;;38.88;31.55;;;25.50;99.90;;;;;;4957135;28;20043;-75
2023/09/09 09:05:54;;;;;;;32.53;27.13;;;25.50;99.90;;;;;;4957306;28;20046;-76
2023/09/09 09:08:19;;;;;;;35.72;30.33;;;25.40;99.90;;;;;;4957110;28;20039;-76
2023/09/09 09:10:47;;;;;;;30.67;26.85;;;25.80;99.90;;;;;;4957113;28;20505;-76
2023/09/09 09:13:13;;;;;;;33.97;26.83;;;25.80;99.90;;;;;;4941187;28;20081;-76
2023/09/09 09:15:40;;;;;;;32.17;28.40;;;25.90;99.90;;;;;;4957012;28;20039;-75
2023/09/09 09:18:08;;;;;;;29.27;25.77;;;25.70;99.90;;;;;;4956698;28;20058;-76
2023/09/09 09:20:33;;;;;;;34.17;26.95;;;25.80;99.90;;;;;;4940866;28;20046;-76
2023/09/09 09:23:01;;;;;;;31.30;25.60;;;25.80;99.90;;;;;;4956986;28;20035;-76
2023/09/09 09:25:28;;;;;;;34.25;25.60;;;25.80;99.90;;;;;;4956907;28;20049;-76
2023/09/09 09:27:57;;;;;;;25.80;22.80;;;26.00;99.90;;;;;;4955609;28;20053;-76
2023/09/09 09:30:24;;;;;;;28.35;25.30;;;26.00;99.90;;;;;;4940621;28;20113;-76
2023/09/09 09:32:54;;;;;;;25.17;21.20;;;26.20;99.90;;;;;;4956771;28;20097;-76
2023/09/09 09:35:27;;;;;;;21.83;18.88;;;26.10;99.90;;;;;;4956732;28;20085;-76
2023/09/09 09:37:55;;;;;;;18.77;16.63;;;26.20;99.90;;;;;;4956622;28;20046;-76
2023/09/09 09:40:21;;;;;;;22.05;17.60;;;26.40;99.90;;;;;;4956552;28;20054;-76
2023/09/09 09:42:47;;;;;;;23.75;19.88;;;26.50;99.90;;;;;;4940684;28;20043;-76
2023/09/09 09:45:13;;;;;;;22.70;20.33;;;26.50;99.90;;;;;;4956409;28;20077;-76
2023/09/09 09:47:47;;;;;;;20.05;17.10;;;26.50;99.90;;;;;;4940549;28;20208;-76
2023/09/09 09:50:30;;;;;;;21.83;18.08;;;26.60;99.90;;;;;;4956789;28;20400;-76
2023/09/09 09:53:06;;;;;;;25.63;21.05;;;26.80;99.90;;;;;;4956619;28;20039;-76
2023/09/09 09:55:33;;;;;;;21.75;18.95;;;26.50;99.90;;;;;;4956332;28;20050;-76
2023/09/09 09:58:00;;;;;;;22.23;18.08;;;26.70;99.90;;;;;;4956059;28;20057;-76
2023/09/09 10:00:27;;;;;;;23.77;21.20;;;26.80;99.90;;;;;;4955942;28;20043;-76
2023/09/09 10:02:55;;;;;;;25.63;23.00;;;26.70;99.90;;;;;;4956335;28;20122;-76
2023/09/09 10:05:23;;;;;;;29.02;23.85;;;27.50;99.90;;;;;;4956219;28;20038;-76
2023/09/09 10:08:16;;;;;;;22.13;19.63;;;26.60;99.90;;;;;;4955844;28;20034;-76
2023/09/09 10:10:49;;;;;;;;;;;26.80;99.90;;;;;;4956487;28;20557;-76
2023/09/09 10:13:41;;;;;;;20.70;15.57;;;26.80;99.90;;;;;;4956351;28;19926;-75
2023/09/09 10:16:07;;;;;;;21.08;17.67;;;27.00;99.90;;;;;;4955736;28;20051;-76
2023/09/09 10:18:37;;;;;;;19.77;16.88;;;27.00;99.90;;;;;;4939843;28;20046;-76
2023/09/09 10:21:06;;;;;;;20.00;15.90;;;27.00;99.90;;;;;;4956079;28;20050;-75
2023/09/09 10:23:32;;;;;;;21.00;16.05;;;27.00;99.90;;;;;;4955857;28;20410;-76
2023/09/09 10:25:59;;;;;;;22.58;17.27;;;27.10;99.90;;;;;;4955824;28;20043;-76
2023/09/09 10:28:26;;;;;;;17.33;15.55;;;27.30;99.90;;;;;;4955783;28;20043;-76
2023/09/09 10:30:53;;;;;;;22.58;19.42;;;27.20;99.90;;;;;;4939762;28;20514;-76
2023/09/09 10:33:20;;;;;;;21.02;18.00;;;27.80;99.90;;;;;;4955797;28;20046;-76
2023/09/09 10:35:50;;;;;;;20.90;18.48;;;27.20;99.90;;;;;;4955838;28;20502;-76
2023/09/09 10:38:17;;;;;;;24.05;17.88;;;27.30;99.90;;;;;;4955249;28;20181;-76
2023/09/09 10:40:46;;;;;;;21.80;18.17;;;27.50;99.90;;;;;;4955552;28;20093;-76
2023/09/09 10:43:13;;;;;;;19.10;16.60;;;27.50;99.90;;;;;;4955900;28;20042;-75
2023/09/09 10:45:45;;;;;;;17.98;13.75;;;27.70;99.90;;;;;;4955750;28;20047;-76
2023/09/09 10:48:11;;;;;;;20.88;16.98;;;27.70;99.90;;;;;;4955320;28;20039;-76
2023/09/09 10:50:44;;;;;;;17.38;14.88;;;27.40;99.90;;;;;;4955772;28;20039;-76
2023/09/09 10:53:19;;;;;;;24.23;16.13;;;28.00;99.90;;;;;;4955530;28;20039;-76
2023/09/09 10:55:46;;;;;;;19.20;15.98;;;28.00;99.90;;;;;;4955477;28;20054;-76
2023/09/09 10:58:16;;;;;;;21.75;15.07;;;27.70;99.90;;;;;;4955613;28;20043;-75
2023/09/09 11:00:47;;;;;;;18.02;13.63;;;27.70;99.90;;;;;;4955201;28;20043;-76
2023/09/09 11:03:24;;;;;;;19.17;14.43;;;27.70;99.90;;;;;;4955346;28;20035;-76
2023/09/09 11:06:12;;;;;;;18.95;13.75;;;28.00;99.90;;;;;;4939416;28;20046;-76
2023/09/09 11:08:40;;;;;;;15.52;12.48;;;28.60;99.90;;;;;;4955425;28;20051;-76
2023/09/09 11:11:18;;;;;;;14.57;13.00;;;28.30;99.90;;;;;;4939379;28;20034;-76
2023/09/09 11:14:05;;;;;;;16.05;13.20;;;28.30;99.90;;;;;;4955692;28;20380;-76
2023/09/09 11:16:38;;;;;;;12.63;10.75;;;28.20;99.90;;;;;;4955342;28;20035;-76
2023/09/09 11:19:06;;;;;;;;;;;28.40;99.90;;;;;;4955688;28;20098;-76
2023/09/09 11:21:34;;;;;;;14.77;11.85;;;28.30;99.90;;;;;;4939687;28;19980;-76
2023/09/09 11:24:02;;;;;;;12.88;11.55;;;28.30;99.90;;;;;;4955265;28;20410;-76
2023/09/09 11:26:28;;;;;;;17.08;10.68;;;28.40;99.90;;;;;;4955124;28;20039;-76
2023/09/09 11:28:54;;;;;;;14.90;10.88;;;28.20;99.90;;;;;;4955337;28;20093;-76
2023/09/09 11:31:20;;;;;;;11.50;9.68;;;28.30;99.90;;;;;;4955086;28;20061;-76
2023/09/09 11:33:46;;;;;;;13.98;8.68;;;28.40;99.90;;;;;;4955583;28;20558;-76
2023/09/09 11:36:16;;;;;;;15.63;10.88;;;28.50;99.90;;;;;;4954823;28;20042;-76
2023/09/09 11:38:43;;;;;;;12.85;9.75;;;28.60;99.90;;;;;;4955020;28;20046;-76
2023/09/09 11:41:09;;;;;;;14.15;10.25;;;28.60;99.90;;;;;;4955045;28;20035;-76
2023/09/09 11:43:35;;;;;;;12.40;10.77;;;28.50;99.90;;;;;;4955332;28;20130;-76
2023/09/09 11:46:00;;;;;;;16.65;10.57;;;28.50;99.90;;;;;;4954846;28;20039;-76
2023/09/09 11:48:26;;;;;;;12.77;10.07;;;28.60;99.90;;;;;;4954797;28;20053;-76
2023/09/09 11:50:52;;;;;;;15.30;9.90;;;28.30;99.90;;;;;;4956501;28;20039;-76
2023/09/09 11:53:22;;;;;;;10.07;9.00;;;28.60;99.90;;;;;;4958798;28;20035;-76
2023/09/09 11:55:53;;;;;;;14.18;11.20;;;28.70;99.90;;;;;;4942850;28;20454;-76
2023/09/09 11:58:19;;;;;;;12.43;11.18;;;28.60;99.90;;;;;;4958512;28;20421;-76
2023/09/09 12:00:44;;;;;;;11.77;10.50;;;28.50;99.90;;;;;;4958142;28;20125;-76
2023/09/09 12:03:17;;;;;;;14.68;10.90;;;28.80;99.90;;;;;;4958429;28;20035;-75
2023/09/09 12:05:43;;;;;;;16.80;10.05;;;28.70;99.90;;;;;;4958562;28;20046;-75
2023/09/09 12:08:09;;;;;;;16.80;11.70;;;28.80;99.90;;;;;;4958188;28;20185;-76
2023/09/09 12:10:37;;;;;;;12.85;10.77;;;28.90;99.90;;;;;;4958156;28;20053;-76
2023/09/09 12:13:04;;;;;;;13.15;10.43;;;28.60;99.90;;;;;;4958416;28;20129;-76
2023/09/09 12:15:30;;;;;;;18.55;11.07;;;28.70;99.90;;;;;;4958596;28;20518;-76
2023/09/09 12:17:56;;;;;;;14.00;11.65;;;28.70;99.90;;;;;;4942048;28;20070;-76
2023/09/09 12:20:22;;;;;;;14.07;10.88;;;28.60;99.90;;;;;;4957923;28;20499;-76
2023/09/09 12:22:50;;;;;;;13.75;12.20;;;28.70;99.90;;;;;;4958207;28;20351;-76
2023/09/09 12:25:35;;;;;;;14.75;9.43;;;28.50;99.90;;;;;;4958063;28;20057;-76
2023/09/09 12:28:01;;;;;;;10.02;8.77;;;28.40;99.90;;;;;;4941750;28;20042;-76